Time;durP1;ratioP1;P1;durP2;ratioP2;P2;SDS_P1;SDS_P2;PMS_P1;PMS_P2;Temp;Humidity;BMP_temperature;BMP_pressure;BME280_temperature;BME280_humidity;BME280_pressure;Samples;Min_cycle;Max_cycle;Signal;HPM_P1;HPM_P2
2023/06/28 00:02:14;;;;;;;2.70;2.50;;;23.30;33.40;;;;;;20689;6735;305025;-77
2023/06/28 00:04:51;;;;;;;2.53;2.33;;;23.50;33.30;;;;;;20625;6735;279092;-77
2023/06/28 00:07:25;;;;;;;3.22;2.50;;;23.70;33.50;;;;;;20675;6735;295494;-77
2023/06/28 00:10:01;;;;;;;2.40;2.20;;;23.90;32.70;;;;;;20833;6756;117376;-77
2023/06/28 00:12:37;;;;;;;6.07;2.10;;;23.20;33.50;;;;;;20840;6756;117159;-76
2023/06/28 00:15:13;;;;;;;2.67;2.03;;;23.20;33.40;;;;;;20731;6756;117642;-77
2023/06/28 00:17:48;;;;;;;2.37;2.03;;;22.90;33.90;;;;;;20770;6771;122987;-77
2023/06/28 00:20:24;;;;;;;2.53;2.17;;;22.60;34.10;;;;;;20866;6756;115979;-77
2023/06/28 00:23:00;;;;;;;3.33;2.60;;;22.80;34.20;;;;;;20611;6768;307369;-77
2023/06/28 00:25:36;;;;;;;2.77;2.27;;;22.70;34.80;;;;;;20695;6761;119283;-76
2023/06/28 00:28:11;;;;;;;2.03;1.93;;;22.80;34.10;;;;;;20830;6755;122917;-77
2023/06/28 00:30:47;;;;;;;2.20;2.10;;;22.60;34.40;;;;;;20789;6755;123115;-77
2023/06/28 00:33:23;;;;;;;3.20;2.30;;;22.40;34.60;;;;;;20804;6755;117487;-77
2023/06/28 00:35:59;;;;;;;4.83;2.20;;;22.20;34.70;;;;;;20751;6744;117397;-77
2023/06/28 00:38:35;;;;;;;3.33;2.10;;;22.20;34.90;;;;;;20847;6744;116840;-77
2023/06/28 00:41:10;;;;;;;3.13;2.30;;;22.10;34.90;;;;;;20470;6793;311322;-76
2023/06/28 00:43:46;;;;;;;3.00;2.42;;;22.40;35.00;;;;;;20512;6759;305680;-77
2023/06/28 00:46:22;;;;;;;2.50;2.13;;;22.90;34.40;;;;;;20668;6757;117288;-77
2023/06/28 00:48:57;;;;;;;2.10;1.97;;;22.90;34.30;;;;;;20791;6760;117113;-76
2023/06/28 00:51:33;;;;;;;3.43;2.40;;;22.70;34.60;;;;;;20804;6763;116993;-77
2023/06/28 00:54:10;;;;;;;2.80;2.37;;;22.80;35.00;;;;;;20630;6757;305918;-77
2023/06/28 00:56:46;;;;;;;2.40;2.20;;;22.70;34.40;;;;;;20916;6724;117891;-77
2023/06/28 00:59:22;;;;;;;4.87;2.40;;;22.60;34.80;;;;;;20839;6741;116879;-79
2023/06/28 01:01:59;;;;;;;2.80;2.03;;;22.40;34.90;;;;;;20797;6767;117846;-77
2023/06/28 01:04:34;;;;;;;2.60;2.37;;;22.40;34.90;;;;;;20532;6774;309296;-77
2023/06/28 01:07:10;;;;;;;2.93;2.30;;;22.60;34.80;;;;;;20561;6774;307836;-77
2023/06/28 01:09:45;;;;;;;2.47;2.28;;;23.00;34.20;;;;;;20482;6774;341389;-77
2023/06/28 01:12:21;;;;;;;3.87;2.20;;;23.30;34.20;;;;;;20836;6770;118265;-77
2023/06/28 01:14:56;;;;;;;2.50;2.10;;;23.20;34.40;;;;;;20658;6784;118354;-77
2023/06/28 01:17:32;;;;;;;2.80;2.23;;;22.80;34.60;;;;;;20753;6789;117816;-77
2023/06/28 01:20:08;;;;;;;2.50;1.93;;;22.60;34.90;;;;;;20763;6792;122078;-77
2023/06/28 01:22:43;;;;;;;4.13;2.30;;;22.40;35.10;;;;;;20857;6762;116170;-77
2023/06/28 01:25:19;;;;;;;3.60;1.97;;;22.30;35.30;;;;;;20841;6736;117347;-77
2023/06/28 01:27:54;;;;;;;1.87;1.77;;;22.10;35.90;;;;;;21024;6708;118419;-80
2023/06/28 01:30:30;;;;;;;2.70;2.00;;;22.10;35.70;;;;;;21026;6708;118764;-77
2023/06/28 01:33:05;;;;;;;3.17;2.30;;;22.00;35.70;;;;;;20665;6731;296599;-77
2023/06/28 01:35:41;;;;;;;2.67;2.10;;;22.30;35.80;;;;;;20465;6762;459415;-76
2023/06/28 01:38:17;;;;;;;3.17;1.97;;;22.80;35.10;;;;;;20796;6759;114184;-77
2023/06/28 01:40:52;;;;;;;3.13;2.30;;;22.80;35.10;;;;;;20728;6783;117564;-78
2023/06/28 01:43:28;;;;;;;4.17;2.13;;;22.60;35.20;;;;;;20847;6758;119566;-77
2023/06/28 01:46:03;;;;;;;3.43;2.30;;;22.50;35.20;;;;;;20493;6749;282246;-77
2023/06/28 01:48:39;;;;;;;3.12;2.30;;;22.70;34.60;;;;;;20744;6717;306371;-77
2023/06/28 01:51:14;;;;;;;3.83;2.40;;;23.00;34.40;;;;;;20771;6707;276784;-77
2023/06/28 01:53:50;;;;;;;4.32;2.40;;;23.30;33.90;;;;;;20758;6707;305405;-77
2023/06/28 01:56:26;;;;;;;2.67;2.47;;;23.50;33.50;;;;;;20617;6707;306892;-76
2023/06/28 01:59:02;;;;;;;1.90;1.80;;;23.60;33.60;;;;;;20961;6736;116851;-76
2023/06/28 02:01:41;;;;;;;3.10;1.97;;;23.40;34.00;;;;;;20782;6746;118491;-79
2023/06/28 02:04:13;;;;;;;2.03;1.93;;;23.00;34.60;;;;;;20854;6762;117095;-77
2023/06/28 02:06:51;;;;;;;3.00;2.40;;;22.60;34.80;;;;;;20710;6740;305233;-77
2023/06/28 02:09:26;;;;;;;3.10;2.72;;;22.80;34.80;;;;;;20590;6760;344463;-77
2023/06/28 02:12:03;;;;;;;3.30;2.53;;;23.10;34.90;;;;;;20725;6742;282557;-77
2023/06/28 02:14:39;;;;;;;4.03;2.70;;;23.30;35.80;;;;;;20648;6750;315943;-77
2023/06/28 02:17:14;;;;;;;4.77;2.73;;;23.30;35.90;;;;;;20696;6751;311301;-77
2023/06/28 02:19:49;;;;;;;2.40;2.20;;;23.30;37.30;;;;;;20832;6792;117484;-76
2023/06/28 02:22:25;;;;;;;3.00;2.30;;;22.80;37.30;;;;;;20675;6752;308568;-77
2023/06/28 02:25:06;;;;;;;4.00;2.42;;;22.70;39.00;;;;;;20568;6769;308235;-77
2023/06/28 02:27:40;;;;;;;3.93;2.60;;;22.70;38.00;;;;;;20653;6739;306931;-77
2023/06/28 02:30:15;;;;;;;2.60;2.40;;;22.70;37.90;;;;;;20881;6760;116168;-77
2023/06/28 02:32:50;;;;;;;2.33;2.00;;;22.40;38.00;;;;;;20806;6762;118754;-77
2023/06/28 02:35:26;;;;;;;3.47;2.33;;;21.90;38.40;;;;;;20730;6747;123201;-77
2023/06/28 02:38:01;;;;;;;4.00;2.80;;;21.50;38.80;;;;;;20561;6774;308628;-77
2023/06/28 02:40:37;;;;;;;3.42;2.97;;;21.60;41.60;;;;;;20644;6762;334206;-77
2023/06/28 02:43:14;;;;;;;5.33;2.70;;;21.80;39.70;;;;;;20820;6774;117623;-77
2023/06/28 02:45:49;;;;;;;2.60;2.40;;;21.70;39.50;;;;;;20726;6762;119308;-78
2023/06/28 02:48:25;;;;;;;4.10;2.80;;;21.40;40.40;;;;;;20705;6745;301091;-77
2023/06/28 02:51:01;;;;;;;5.37;3.00;;;21.40;40.40;;;;;;20708;6730;305144;-78
2023/06/28 02:53:37;;;;;;;2.80;2.23;;;21.40;39.90;;;;;;20825;6749;122737;-78
2023/06/28 02:56:15;;;;;;;4.53;2.87;;;21.40;39.90;;;;;;20494;6741;307004;-78
2023/06/28 02:58:48;;;;;;;4.10;2.80;;;21.40;40.50;;;;;;20669;6738;300656;-78
2023/06/28 03:01:25;;;;;;;3.27;2.80;;;21.70;39.30;;;;;;20628;6738;289437;-77
2023/06/28 03:04:00;;;;;;;5.00;3.17;;;21.70;39.30;;;;;;20583;6766;307201;-77
2023/06/28 03:06:36;;;;;;;2.77;2.50;;;21.80;39.20;;;;;;20625;6823;117809;-77
2023/06/28 03:09:11;;;;;;;3.47;2.53;;;21.40;39.20;;;;;;20802;6767;117719;-77
2023/06/28 03:11:50;;;;;;;3.00;2.70;;;21.00;39.70;;;;;;20665;6734;309170;-78
2023/06/28 03:14:23;;;;;;;3.77;2.73;;;21.30;39.40;;;;;;20622;6744;335729;-78
2023/06/28 03:16:59;;;;;;;3.17;2.50;;;21.30;39.40;;;;;;20844;6740;117316;-78
2023/06/28 03:19:35;;;;;;;3.40;2.40;;;21.10;39.20;;;;;;20843;6797;118151;-77
2023/06/28 03:22:10;;;;;;;4.57;3.17;;;20.80;39.30;;;;;;20653;6741;280162;-77
2023/06/28 03:24:46;;;;;;;2.80;2.53;;;21.20;38.90;;;;;;20622;6738;342710;-77
2023/06/28 03:27:23;;;;;;;3.43;2.83;;;21.10;38.80;;;;;;20907;6742;118251;-78
2023/06/28 03:29:57;;;;;;;3.33;2.37;;;21.00;38.80;;;;;;20726;6782;118809;-77
2023/06/28 03:32:34;;;;;;;3.70;3.03;;;20.60;40.00;;;;;;20823;6748;117570;-79
2023/06/28 03:35:11;;;;;;;11.47;8.60;;;20.50;39.90;;;;;;20580;6769;310672;-77
2023/06/28 03:37:53;;;;;;;3.50;3.20;;;20.80;40.60;;;;;;20801;6737;116602;-77
2023/06/28 03:40:29;;;;;;;5.37;3.60;;;20.80;40.30;;;;;;20584;6766;294865;-77
2023/06/28 03:43:05;;;;;;;3.77;3.33;;;21.00;40.30;;;;;;20848;6751;117867;-77
2023/06/28 03:45:41;;;;;;;3.20;2.90;;;21.00;40.20;;;;;;20624;6776;118779;-78
2023/06/28 03:48:18;;;;;;;4.37;2.43;;;20.80;40.40;;;;;;20909;6739;117040;-77
2023/06/28 03:50:52;;;;;;;4.17;2.80;;;20.60;40.60;;;;;;20881;6743;117121;-77
2023/06/28 03:53:28;;;;;;;2.90;2.70;;;20.50;40.80;;;;;;20840;6748;118543;-78
2023/06/28 03:56:03;;;;;;;4.27;2.97;;;20.50;41.10;;;;;;20561;6738;311007;-78
2023/06/28 03:58:40;;;;;;;2.90;2.60;;;21.30;40.80;;;;;;20718;6743;323120;-77
2023/06/28 04:01:15;;;;;;;6.43;2.87;;;21.30;40.80;;;;;;20838;6753;117006;-78
2023/06/28 04:03:51;;;;;;;2.73;2.40;;;21.30;40.60;;;;;;20825;6753;122971;-77
2023/06/28 04:06:26;;;;;;;3.10;2.70;;;21.10;40.70;;;;;;20711;6753;117742;-76
2023/06/28 04:09:02;;;;;;;3.00;2.80;;;20.90;40.90;;;;;;20678;6753;302048;-78
2023/06/28 04:11:38;;;;;;;3.20;2.50;;;21.20;40.90;;;;;;20831;6766;123545;-77
2023/06/28 04:14:13;;;;;;;3.43;2.70;;;21.20;40.60;;;;;;20611;6798;276758;-78
2023/06/28 04:16:49;;;;;;;3.13;2.80;;;21.50;40.50;;;;;;20678;6752;280871;-77
2023/06/28 04:19:24;;;;;;;7.40;3.20;;;21.80;39.50;;;;;;20645;6752;279651;-79
2023/06/28 04:22:00;;;;;;;2.70;2.57;;;22.10;39.00;;;;;;20876;6754;118786;-78
2023/06/28 04:24:37;;;;;;;5.32;2.75;;;21.90;39.40;;;;;;20550;6773;306578;-81
2023/06/28 04:27:32;;;;;;;3.05;2.75;;;22.00;39.50;;;;;;20635;6751;336496;-78
2023/06/28 04:30:08;;;;;;;3.03;2.70;;;22.20;39.30;;;;;;20860;6628;121473;-78
2023/06/28 04:32:44;;;;;;;3.37;2.43;;;21.90;39.40;;;;;;20837;6758;117657;-75
2023/06/28 04:35:21;;;;;;;3.47;3.17;;;21.60;40.60;;;;;;20843;6734;117399;-77
2023/06/28 04:37:56;;;;;;;3.73;3.00;;;21.40;40.40;;;;;;20901;6749;117529;-76
2023/06/28 04:40:32;;;;;;;3.13;2.93;;;21.10;40.90;;;;;;20936;6734;117421;-77
2023/06/28 04:43:10;;;;;;;3.20;2.90;;;21.00;40.80;;;;;;20652;6731;277183;-76
2023/06/28 04:45:44;;;;;;;4.75;2.97;;;21.40;41.50;;;;;;20488;6751;312632;-76
2023/06/28 04:48:19;;;;;;;3.10;2.80;;;21.80;40.50;;;;;;20937;6736;117006;-76
2023/06/28 04:50:55;;;;;;;3.20;2.90;;;21.80;40.40;;;;;;20666;6768;276637;-77
2023/06/28 04:53:30;;;;;;;5.97;2.80;;;22.00;40.80;;;;;;20590;6758;340887;-76
2023/06/28 04:56:08;;;;;;;3.13;2.70;;;22.30;40.60;;;;;;20683;6758;117645;-80
2023/06/28 04:58:43;;;;;;;3.47;2.80;;;22.10;40.50;;;;;;20700;6619;276327;-77
2023/06/28 05:01:19;;;;;;;3.22;2.92;;;22.50;40.60;;;;;;20693;6753;310502;-77
2023/06/28 05:03:55;;;;;;;3.87;2.80;;;22.50;40.60;;;;;;20869;6753;116947;-80
2023/06/28 05:06:31;;;;;;;6.37;2.73;;;22.40;40.50;;;;;;20738;6803;119250;-80
2023/06/28 05:09:06;;;;;;;3.50;3.20;;;22.10;40.60;;;;;;20764;6754;305288;-78
2023/06/28 05:11:43;;;;;;;3.20;3.00;;;22.30;40.70;;;;;;20630;6741;340560;-80
2023/06/28 05:14:19;;;;;;;2.67;2.47;;;22.60;39.40;;;;;;20832;6771;117003;-79
2023/06/28 05:16:54;;;;;;;3.10;2.90;;;22.50;39.40;;;;;;20749;6722;279408;-77
2023/06/28 05:19:30;;;;;;;3.28;2.92;;;22.70;39.30;;;;;;20605;6748;336040;-77
2023/06/28 05:22:05;;;;;;;3.40;2.83;;;22.90;38.70;;;;;;20696;6744;281481;-77
2023/06/28 05:24:41;;;;;;;3.40;3.10;;;23.20;37.90;;;;;;20566;6747;314765;-78
2023/06/28 05:27:17;;;;;;;2.93;2.70;;;23.40;38.30;;;;;;20798;6762;116994;-81
2023/06/28 05:29:52;;;;;;;3.20;2.50;;;23.20;38.50;;;;;;20863;6758;118053;-75
2023/06/28 05:32:28;;;;;;;3.83;3.00;;;22.80;39.00;;;;;;20606;6759;279779;-80
2023/06/28 05:35:05;;;;;;;3.00;2.57;;;22.90;39.90;;;;;;20677;6776;117236;-78
2023/06/28 05:37:41;;;;;;;3.07;2.77;;;23.00;39.80;;;;;;20632;6759;277615;-78
2023/06/28 05:40:15;;;;;;;2.60;2.30;;;23.00;39.80;;;;;;20931;6744;121432;-77
2023/06/28 05:42:51;;;;;;;2.77;2.57;;;23.00;39.80;;;;;;20870;6759;116969;-76
2023/06/28 05:45:27;;;;;;;3.83;2.70;;;22.80;40.00;;;;;;20724;6759;118338;-77
2023/06/28 05:48:03;;;;;;;4.17;3.10;;;23.00;39.70;;;;;;20606;6759;307743;-78
2023/06/28 05:50:39;;;;;;;2.70;2.50;;;23.00;39.90;;;;;;20850;6762;118307;-78
2023/06/28 05:53:30;;;;;;;3.72;3.00;;;23.00;39.60;;;;;;20726;6747;275828;-94
2023/06/28 05:55:57;;;;;;;2.70;2.50;;;23.30;39.70;;;;;;20801;6729;118026;-78
2023/06/28 05:58:33;;;;;;;3.23;2.90;;;23.30;39.50;;;;;;20722;6744;276602;-79
2023/06/28 06:01:08;;;;;;;2.80;2.53;;;23.60;39.00;;;;;;20975;6729;116744;-78
2023/06/28 06:03:47;;;;;;;3.00;2.43;;;23.60;38.80;;;;;;20911;6744;118096;-78
2023/06/28 06:06:19;;;;;;;2.67;2.43;;;23.40;39.00;;;;;;20818;6729;117306;-78
2023/06/28 06:08:55;;;;;;;2.87;2.60;;;23.30;39.20;;;;;;20906;6731;119430;-78
2023/06/28 06:11:31;;;;;;;3.70;2.80;;;23.20;39.50;;;;;;20670;6742;276221;-77
2023/06/28 06:14:06;;;;;;;3.25;2.95;;;23.40;38.90;;;;;;20723;6739;295434;-77
2023/06/28 06:16:42;;;;;;;2.50;2.30;;;23.80;38.30;;;;;;20935;6740;117197;-77
2023/06/28 06:19:17;;;;;;;2.87;2.33;;;23.80;38.50;;;;;;20928;6745;116995;-77
2023/06/28 06:21:54;;;;;;;2.97;2.60;;;23.60;38.50;;;;;;20948;6732;116624;-81
2023/06/28 06:24:30;;;;;;;2.60;2.40;;;23.40;38.60;;;;;;20738;6725;335995;-76
2023/06/28 06:27:06;;;;;;;3.87;2.60;;;23.70;37.80;;;;;;20702;6733;277126;-75
2023/06/28 06:29:41;;;;;;;3.40;2.58;;;24.20;37.20;;;;;;20604;6765;307444;-74
2023/06/28 06:32:17;;;;;;;3.07;2.07;;;24.60;37.10;;;;;;20740;6786;118706;-77
2023/06/28 06:34:53;;;;;;;2.60;2.40;;;24.60;37.00;;;;;;20585;6748;307306;-77
2023/06/28 06:37:28;;;;;;;2.23;2.03;;;24.80;36.50;;;;;;20856;6748;117232;-77
2023/06/28 06:40:04;;;;;;;2.90;2.20;;;24.80;36.60;;;;;;20812;6766;116378;-77
2023/06/28 06:42:39;;;;;;;2.50;2.30;;;24.80;36.80;;;;;;20588;6766;340636;-77
2023/06/28 06:45:18;;;;;;;2.57;2.30;;;25.00;36.20;;;;;;20784;6751;118291;-77
2023/06/28 06:47:50;;;;;;;3.57;2.40;;;25.20;36.30;;;;;;20900;6732;119911;-77
2023/06/28 06:50:27;;;;;;;3.50;2.40;;;25.10;36.50;;;;;;20690;6737;276223;-77
2023/06/28 06:53:04;;;;;;;2.57;2.37;;;25.40;36.10;;;;;;20835;6747;116994;-77
2023/06/28 06:55:40;;;;;;;2.70;2.50;;;25.40;36.00;;;;;;20511;6738;336445;-77
2023/06/28 06:58:15;;;;;;;2.20;2.00;;;25.60;35.30;;;;;;20900;6745;117100;-77
2023/06/28 07:00:51;;;;;;;3.73;2.40;;;25.60;35.30;;;;;;20686;6739;275883;-74
2023/06/28 07:03:27;;;;;;;2.50;2.30;;;25.90;35.10;;;;;;20880;6744;118665;-77
2023/06/28 07:06:08;;;;;;;2.35;2.15;;;25.90;35.20;;;;;;20629;6734;310806;-77
2023/06/28 07:08:41;;;;;;;2.90;2.33;;;26.10;34.90;;;;;;20762;6729;323224;-77
2023/06/28 07:11:13;;;;;;;2.40;2.20;;;26.40;33.30;;;;;;20876;6736;116997;-77
2023/06/28 07:13:49;;;;;;;2.73;2.13;;;26.40;33.50;;;;;;20817;6772;119120;-77
2023/06/28 07:16:25;;;;;;;3.90;2.73;;;26.50;32.20;;;;;;20428;6759;308695;-77
2023/06/28 07:19:01;;;;;;;2.50;2.30;;;26.50;32.20;;;;;;20861;6764;116834;-77
2023/06/28 07:21:36;;;;;;;2.60;2.20;;;26.60;32.40;;;;;;20898;6745;117578;-77
2023/06/28 07:24:12;;;;;;;2.47;2.20;;;26.40;32.60;;;;;;20679;6749;277581;-77
2023/06/28 07:26:48;;;;;;;3.27;2.50;;;26.70;32.80;;;;;;20795;6766;117095;-77
2023/06/28 07:29:24;;;;;;;2.70;2.50;;;26.90;32.60;;;;;;20936;6742;117340;-80
2023/06/28 07:31:59;;;;;;;2.77;2.13;;;26.80;32.70;;;;;;20880;6742;117886;-77
2023/06/28 07:34:34;;;;;;;2.33;2.13;;;26.70;32.90;;;;;;20670;6747;307239;-75
2023/06/28 07:37:10;;;;;;;2.53;2.20;;;27.00;32.40;;;;;;20693;6757;279083;-72
2023/06/28 07:39:47;;;;;;;3.65;2.45;;;27.80;30.90;;;;;;20576;6762;276246;-78
2023/06/28 07:42:23;;;;;;;2.30;2.10;;;27.80;30.90;;;;;;20806;6765;123797;-74
2023/06/28 07:44:58;;;;;;;2.57;1.97;;;27.60;31.20;;;;;;20732;6766;123816;-77
2023/06/28 07:47:34;;;;;;;2.30;2.17;;;26.90;31.80;;;;;;20822;6752;117486;-75
2023/06/28 07:50:15;;;;;;;3.57;2.03;;;26.90;31.70;;;;;;20853;6749;117243;-83
2023/06/28 07:52:53;;;;;;;4.43;2.53;;;26.60;32.10;;;;;;20804;6773;117603;-82
2023/06/28 07:55:27;;;;;;;4.27;2.00;;;26.50;32.30;;;;;;20780;6739;121318;-83
2023/06/28 07:58:01;;;;;;;2.30;2.10;;;26.40;32.50;;;;;;20937;6723;121811;-82
2023/06/28 08:00:40;;;;;;;2.60;2.40;;;26.30;32.80;;;;;;20713;6731;305623;-81
2023/06/28 08:03:13;;;;;;;3.80;2.40;;;26.90;31.50;;;;;;20660;6748;277024;-79
2023/06/28 08:05:49;;;;;;;2.60;2.30;;;26.80;31.40;;;;;;20670;6759;122929;-81
2023/06/28 08:08:24;;;;;;;1.90;1.80;;;26.70;31.40;;;;;;20828;6761;116977;-82
2023/06/28 08:11:00;;;;;;;3.40;2.17;;;26.50;32.10;;;;;;20841;6758;116995;-82
2023/06/28 08:13:36;;;;;;;2.63;2.27;;;26.50;32.50;;;;;;20668;6741;300063;-79
2023/06/28 08:16:12;;;;;;;3.97;1.83;;;26.50;32.50;;;;;;20699;6756;117553;-80
2023/06/28 08:18:47;;;;;;;3.57;2.20;;;26.60;32.40;;;;;;20815;6763;116193;-80
2023/06/28 08:21:23;;;;;;;2.17;1.97;;;26.40;32.20;;;;;;20824;6763;116981;-76
2023/06/28 08:23:59;;;;;;;2.47;2.20;;;26.20;32.30;;;;;;20593;6768;281765;-78
2023/06/28 08:26:37;;;;;;;2.75;2.20;;;26.50;31.80;;;;;;20481;6802;307732;-81
2023/06/28 08:29:15;;;;;;;2.75;2.42;;;26.90;31.20;;;;;;20666;6759;279931;-79
2023/06/28 08:31:49;;;;;;;2.97;2.07;;;27.40;30.70;;;;;;20611;6769;306315;-79
2023/06/28 08:34:26;;;;;;;2.50;2.00;;;27.90;29.70;;;;;;20556;6788;279332;-79
2023/06/28 08:37:03;;;;;;;2.93;1.80;;;27.90;29.70;;;;;;20883;6758;116855;-77
2023/06/28 08:39:37;;;;;;;3.20;2.00;;;27.60;30.00;;;;;;20894;6748;145711;-79
2023/06/28 08:42:13;;;;;;;2.77;2.50;;;27.30;30.30;;;;;;20668;6752;306088;-79
2023/06/28 08:44:48;;;;;;;3.17;2.53;;;27.50;30.10;;;;;;20532;6769;307754;-79
2023/06/28 08:47:24;;;;;;;2.58;2.20;;;28.00;29.70;;;;;;20623;6755;277191;-79
2023/06/28 08:50:00;;;;;;;2.93;2.30;;;28.00;29.70;;;;;;20938;6740;117363;-78
2023/06/28 08:52:36;;;;;;;3.43;2.20;;;28.00;30.00;;;;;;20846;6755;116298;-79
2023/06/28 08:55:11;;;;;;;3.90;3.60;;;27.80;30.40;;;;;;20460;6789;284194;-78
2023/06/28 08:57:49;;;;;;;2.40;2.20;;;28.50;29.70;;;;;;20551;6775;307299;-78
2023/06/28 09:00:24;;;;;;;2.40;2.20;;;28.50;29.70;;;;;;20845;6759;116928;-78
2023/06/28 09:03:00;;;;;;;2.37;2.17;;;28.50;29.90;;;;;;20838;6759;116866;-78
2023/06/28 09:05:37;;;;;;;2.83;2.20;;;28.50;29.90;;;;;;20707;6762;117542;-78
2023/06/28 09:08:14;;;;;;;1.80;1.70;;;28.40;30.20;;;;;;20889;6760;116218;-78
2023/06/28 09:10:51;;;;;;;2.40;2.20;;;28.30;30.10;;;;;;20558;6778;306818;-75
2023/06/28 09:13:29;;;;;;;2.43;2.23;;;28.80;29.70;;;;;;20811;6763;151900;-76
2023/06/28 09:16:05;;;;;;;2.03;1.93;;;29.00;29.60;;;;;;20649;6778;117573;-77
2023/06/28 09:18:40;;;;;;;2.73;2.37;;;29.00;29.60;;;;;;20647;6752;306067;-77
2023/06/28 09:21:28;;;;;;;2.73;2.20;;;29.30;28.70;;;;;;20855;6752;116861;-77
2023/06/28 09:24:03;;;;;;;2.45;2.25;;;29.40;28.90;;;;;;20643;6742;279529;-76
2023/06/28 09:26:45;;;;;;;4.73;2.60;;;29.70;28.50;;;;;;20854;6753;115977;-77
2023/06/28 09:29:21;;;;;;;3.33;2.30;;;29.80;28.50;;;;;;20868;6763;117136;-77
2023/06/28 09:31:56;;;;;;;2.50;1.97;;;29.60;28.50;;;;;;20862;6744;117531;-75
2023/06/28 09:34:34;;;;;;;2.47;2.27;;;29.30;28.80;;;;;;20615;6766;279673;-77
2023/06/28 09:37:07;;;;;;;3.57;2.53;;;29.60;28.40;;;;;;20720;6748;276000;-77
2023/06/28 09:39:43;;;;;;;2.30;2.10;;;30.10;27.60;;;;;;20638;6749;311036;-78
2023/06/28 09:42:20;;;;;;;2.07;1.90;;;30.40;27.90;;;;;;20858;6767;116942;-78
2023/06/28 09:44:55;;;;;;;3.27;2.67;;;30.50;28.00;;;;;;20608;6759;308090;-78
2023/06/28 09:47:34;;;;;;;4.03;2.50;;;30.60;27.40;;;;;;20876;6744;119601;-78
2023/06/28 09:50:09;;;;;;;3.50;2.30;;;30.50;27.50;;;;;;20707;6748;276051;-78
2023/06/28 09:52:45;;;;;;;2.90;2.27;;;30.50;28.10;;;;;;20918;6751;116973;-78
2023/06/28 09:55:21;;;;;;;2.27;2.10;;;30.40;27.50;;;;;;20540;6759;312103;-78
2023/06/28 09:58:06;;;;;;;3.50;2.43;;;30.90;27.20;;;;;;20735;6747;304985;-80
2023/06/28 10:00:32;;;;;;;2.13;1.93;;;30.90;27.20;;;;;;20919;6746;116784;-78
2023/06/28 10:03:11;;;;;;;2.30;2.10;;;30.80;27.20;;;;;;20877;6746;116938;-79
2023/06/28 10:05:47;;;;;;;2.50;2.00;;;30.60;27.60;;;;;;20659;6761;117565;-80
2023/06/28 10:08:22;;;;;;;2.50;2.30;;;30.50;27.80;;;;;;20624;6802;319256;-76
2023/06/28 10:10:58;;;;;;;2.67;2.43;;;30.80;27.40;;;;;;20669;6761;277788;-80
2023/06/28 10:13:34;;;;;;;2.67;1.93;;;31.40;27.10;;;;;;20677;6748;278819;-78
2023/06/28 10:16:18;;;;;;;2.50;2.10;;;31.30;27.00;;;;;;20409;6776;310230;-78
2023/06/28 10:18:54;;;;;;;3.57;2.33;;;31.70;26.80;;;;;;20909;6751;116961;-82
2023/06/28 10:21:29;;;;;;;2.80;2.00;;;31.60;26.80;;;;;;20618;6763;277153;-76
2023/06/28 10:24:06;;;;;;;2.87;2.40;;;31.60;26.70;;;;;;20808;6763;117258;-78
2023/06/28 10:26:41;;;;;;;3.27;2.07;;;31.60;26.80;;;;;;20925;6741;116030;-85
2023/06/28 10:29:18;;;;;;;2.93;2.37;;;31.50;26.80;;;;;;20554;6773;296504;-77
2023/06/28 10:31:54;;;;;;;3.45;2.45;;;31.40;26.70;;;;;;20562;6769;335653;-78
2023/06/28 10:34:30;;;;;;;3.60;2.20;;;31.80;26.50;;;;;;20743;6770;121012;-79
2023/06/28 10:37:06;;;;;;;3.03;2.13;;;32.00;26.30;;;;;;20625;6770;310831;-78
2023/06/28 10:39:42;;;;;;;3.37;2.40;;;32.00;26.30;;;;;;20548;6770;276843;-78
2023/06/28 10:42:17;;;;;;;3.47;2.40;;;32.20;25.70;;;;;;20779;6789;117313;-79
2023/06/28 10:44:53;;;;;;;2.80;2.30;;;31.70;26.10;;;;;;20522;6764;310782;-79
2023/06/28 10:47:29;;;;;;;4.60;2.80;;;31.70;26.50;;;;;;20787;6759;148815;-78
2023/06/28 10:50:08;;;;;;;3.43;2.20;;;31.60;27.00;;;;;;20746;6784;116356;-78
2023/06/28 10:52:46;;;;;;;3.53;2.20;;;31.30;26.70;;;;;;20728;6788;117302;-77
2023/06/28 10:55:31;;;;;;;4.23;2.07;;;31.00;27.10;;;;;;20713;6774;117189;-78
2023/06/28 10:58:07;;;;;;;2.93;2.23;;;30.90;27.30;;;;;;20870;6762;117151;-81
2023/06/28 11:00:43;;;;;;;2.33;1.80;;;30.70;27.20;;;;;;20883;6744;120025;-78
2023/06/28 11:03:23;;;;;;;3.10;2.27;;;30.50;27.60;;;;;;20716;6729;276323;-81
2023/06/28 11:05:55;;;;;;;2.37;2.17;;;30.60;26.80;;;;;;20551;6729;306139;-76
2023/06/28 11:08:35;;;;;;;3.27;2.00;;;30.40;26.60;;;;;;20886;6736;117205;-82
2023/06/28 11:11:34;;;;;;;5.73;2.73;;;30.40;26.60;;;;;;20888;6743;116907;-80
2023/06/28 11:14:16;;;;;;;2.93;2.37;;;29.80;27.10;;;;;;20216;6800;117074;-90
2023/06/28 11:16:51;;;;;;;3.97;2.50;;;29.50;27.60;;;;;;20931;6744;116745;-77
2023/06/28 11:19:27;;;;;;;3.37;2.23;;;29.40;27.70;;;;;;20853;6759;128720;-78
2023/06/28 11:22:03;;;;;;;3.23;2.10;;;29.50;27.70;;;;;;20874;6759;117094;-80
2023/06/28 11:24:38;;;;;;;3.77;1.93;;;29.60;27.50;;;;;;20839;6759;115903;-78
2023/06/28 11:27:14;;;;;;;3.40;2.57;;;29.40;27.30;;;;;;20884;6759;116908;-78
2023/06/28 11:29:53;;;;;;;2.40;2.00;;;29.50;27.90;;;;;;20673;6759;281387;-79
2023/06/28 11:32:31;;;;;;;2.27;2.00;;;29.50;27.90;;;;;;20575;6774;308116;-77
2023/06/28 11:35:06;;;;;;;3.57;2.20;;;30.10;27.60;;;;;;20768;6755;117685;-83
2023/06/28 11:37:41;;;;;;;3.93;2.03;;;30.40;27.40;;;;;;20766;6771;120235;-77
2023/06/28 11:40:18;;;;;;;3.10;2.10;;;30.50;27.40;;;;;;20714;6746;319261;-79
2023/06/28 11:42:52;;;;;;;2.37;2.17;;;30.80;27.30;;;;;;20650;6763;307058;-79
2023/06/28 11:45:31;;;;;;;3.03;1.93;;;31.10;26.50;;;;;;20709;6769;132400;-77
2023/06/28 11:48:04;;;;;;;2.33;2.13;;;30.90;26.20;;;;;;20665;6759;295052;-80
2023/06/28 11:50:40;;;;;;;3.30;2.30;;;30.70;25.90;;;;;;20586;6769;306650;-80
2023/06/28 11:53:15;;;;;;;3.77;1.87;;;30.60;25.60;;;;;;20843;6770;122821;-78
2023/06/28 11:55:54;;;;;;;3.73;2.03;;;30.50;26.00;;;;;;20692;6770;118957;-78
2023/06/28 11:58:32;;;;;;;2.83;2.20;;;30.10;26.40;;;;;;20935;6740;120657;-80
2023/06/28 12:01:08;;;;;;;2.10;1.90;;;29.60;26.60;;;;;;20901;6749;116922;-78
2023/06/28 12:03:43;;;;;;;2.50;2.00;;;29.30;27.00;;;;;;20862;6749;116920;-78
2023/06/28 12:06:19;;;;;;;2.33;2.20;;;29.00;27.20;;;;;;20717;6755;117430;-80
2023/06/28 12:08:55;;;;;;;4.17;2.00;;;28.80;27.70;;;;;;20894;6755;122173;-77
2023/06/28 12:11:30;;;;;;;2.60;2.30;;;28.60;27.60;;;;;;20591;6773;277167;-79
2023/06/28 12:14:06;;;;;;;3.63;2.10;;;28.80;27.70;;;;;;20610;6773;306240;-79
2023/06/28 12:16:43;;;;;;;2.10;1.90;;;29.20;28.00;;;;;;20831;6773;116480;-80
2023/06/28 12:19:18;;;;;;;2.42;2.08;;;29.10;27.90;;;;;;20569;6773;308727;-78
2023/06/28 12:21:53;;;;;;;3.00;2.10;;;29.30;27.10;;;;;;20556;6772;307843;-78
2023/06/28 12:24:29;;;;;;;5.63;2.10;;;29.60;26.70;;;;;;20750;6788;117436;-77
2023/06/28 12:27:05;;;;;;;2.97;2.30;;;29.50;26.90;;;;;;20782;6773;116105;-77
2023/06/28 12:29:41;;;;;;;2.30;2.10;;;29.40;27.80;;;;;;20752;6788;117947;-78
2023/06/28 12:32:17;;;;;;;2.40;2.20;;;29.40;27.80;;;;;;20790;6771;117320;-78
2023/06/28 12:34:52;;;;;;;3.00;2.03;;;29.50;27.80;;;;;;20734;6771;121369;-78
2023/06/28 12:37:42;;;;;;;5.87;2.10;;;29.60;27.60;;;;;;20587;6758;276676;-78
2023/06/28 12:40:15;;;;;;;2.37;2.17;;;30.00;27.20;;;;;;20573;6773;277957;-77
2023/06/28 12:43:06;;;;;;;2.80;2.40;;;30.40;26.50;;;;;;20610;6758;276770;-77
2023/06/28 12:45:43;;;;;;;5.67;2.63;;;30.70;26.90;;;;;;20733;6743;118120;-78
2023/06/28 12:48:17;;;;;;;2.83;2.00;;;30.60;26.80;;;;;;20856;6755;118236;-77
2023/06/28 12:50:55;;;;;;;2.40;2.00;;;30.30;26.90;;;;;;20859;6744;123379;-78
2023/06/28 12:53:29;;;;;;;2.40;2.10;;;30.20;27.40;;;;;;20596;6759;306440;-77
2023/06/28 12:56:05;;;;;;;2.97;2.00;;;30.40;27.40;;;;;;20648;6764;117557;-78
2023/06/28 12:58:40;;;;;;;2.63;2.00;;;30.50;27.20;;;;;;20823;6759;117344;-78
2023/06/28 13:01:15;;;;;;;3.33;2.00;;;30.40;27.80;;;;;;20850;6750;116190;-78
2023/06/28 13:03:54;;;;;;;5.37;2.17;;;30.30;27.20;;;;;;20614;6750;306453;-78
2023/06/28 13:06:27;;;;;;;2.27;2.07;;;30.60;27.20;;;;;;20446;6750;278001;-78
2023/06/28 13:09:02;;;;;;;3.13;1.67;;;31.00;26.30;;;;;;20872;6739;116989;-78
2023/06/28 13:11:38;;;;;;;3.07;2.00;;;31.00;26.40;;;;;;20633;6746;281268;-78
2023/06/28 13:14:15;;;;;;;3.63;2.10;;;31.20;26.50;;;;;;20634;6746;297728;-78
2023/06/28 13:16:49;;;;;;;2.97;2.20;;;31.40;25.90;;;;;;20652;6746;306822;-78
2023/06/28 13:19:25;;;;;;;2.97;2.00;;;31.60;25.70;;;;;;20701;6731;335488;-80
2023/06/28 13:22:00;;;;;;;3.27;2.00;;;31.60;25.70;;;;;;20861;6746;117766;-78